TimePDT,TemperatureF,Dew PointF,Humidity,Sea Level PressureIn,VisibilityMPH,Wind Direction,Wind SpeedMPH,Gust SpeedMPH,PrecipitationIn,Events,Conditions,WindDirDegrees,DateUTC
12:53 AM,80.1,52.0,38,29.78,10.0,WNW,3.5,-,N/A,,Clear,300,2013-07-20 07:53:00
1:53 AM,75.0,53.1,46,29.79,10.0,Calm,Calm,-,N/A,,Clear,0,2013-07-20 08:53:00
2:53 AM,66.9,55.9,68,29.78,10.0,Calm,Calm,-,N/A,,Clear,0,2013-07-20 09:53:00
3:53 AM,68.0,57.9,70,29.77,10.0,WNW,3.5,-,N/A,,Clear,290,2013-07-20 10:53:00
4:53 AM,64.0,57.0,78,29.76,10.0,Calm,Calm,-,N/A,,Clear,0,2013-07-20 11:53:00
5:53 AM,64.0,57.0,78,29.77,10.0,Calm,Calm,-,N/A,,Clear,0,2013-07-20 12:53:00
6:53 AM,66.0,57.0,73,29.78,8.0,Calm,Calm,-,N/A,,Clear,0,2013-07-20 13:53:00
7:53 AM,75.0,53.1,46,29.79,10.0,West,3.5,-,N/A,,Clear,260,2013-07-20 14:53:00
8:53 AM,80.1,54.0,40,29.79,10.0,West,5.8,-,N/A,,Clear,280,2013-07-20 15:53:00
9:53 AM,84.9,52.0,32,29.78,10.0,WNW,4.6,-,N/A,,Clear,290,2013-07-20 16:53:00
10:53 AM,89.1,51.1,27,29.78,10.0,NW,8.1,-,N/A,,Clear,310,2013-07-20 17:53:00
11:53 AM,93.0,50.0,23,29.77,10.0,WSW,5.8,-,N/A,,Clear,250,2013-07-20 18:53:00
12:53 PM,95.0,48.9,21,29.75,10.0,Calm,Calm,-,N/A,,Clear,0,2013-07-20 19:53:00
1:53 PM,98.1,44.1,16,29.73,10.0,Calm,Calm,-,N/A,,Clear,0,2013-07-20 20:53:00
2:53 PM,102.0,43.0,13,29.72,10.0,NW,6.9,-,N/A,,Partly Cloudy,320,2013-07-20 21:53:00
3:53 PM,102.9,41.0,12,29.69,10.0,NNW,6.9,-,N/A,,Scattered Clouds,340,2013-07-20 22:53:00
4:53 PM,104.0,32.0,8,29.67,10.0,North,5.8,-,N/A,,Mostly Cloudy,350,2013-07-20 23:53:00
5:53 PM,102.9,43.0,13,29.66,10.0,NW,5.8,-,N/A,,Scattered Clouds,320,2013-07-21 00:53:00
6:53 PM,100.9,51.1,19,29.67,10.0,North,8.1,-,N/A,,Clear,350,2013-07-21 01:53:00
7:53 PM,96.1,55.0,25,29.68,10.0,NW,4.6,-,N/A,,Partly Cloudy,310,2013-07-21 02:53:00
8:53 PM,93.0,55.0,28,29.68,10.0,Calm,Calm,-,N/A,,Partly Cloudy,0,2013-07-21 03:53:00
9:53 PM,84.0,57.0,40,29.70,10.0,NNW,4.6,-,N/A,,Clear,330,2013-07-21 04:53:00
10:53 PM,86.0,57.9,38,29.70,10.0,North,5.8,-,N/A,,Clear,350,2013-07-21 05:53:00
11:53 PM,78.1,61.0,56,29.72,10.0,Calm,Calm,-,N/A,,Clear,0,2013-07-21 06:53:00